Millenium Air

Millenium Air Since 1998



 METAR AND TAF INFORMATION
METAR FOR LFBT
ADDS - METARS form results

(0511 UTC 18 April 2021)
Data provider http://aviationweather.gov/metar/data/
 
METAR text: LFBT 180500Z AUTO 17004KT 9999 OVC066 04/01 Q1022 TEMPO 4000 BR
Conditions at: LFBT (TARBES/OSSUN , FR) observed 0500 UTC 18 April 2021
Temperature: 4.0°C (39°F)
Dewpoint: 1.0°C (34°F) [RH = 81%]
Pressure (altimeter): 30.18 inches Hg (1022.0 mb)
Winds: from the S (170 degrees) at 5 MPH (4 knots; 2.1 m/s)
Visibility: 6 or more miles (10+ km)
Ceiling: 6600 feet AGL
Clouds: overcast cloud deck at 6600 feet AGL
Weather: no significant weather observed at this time

METAR text: LFBT 180430Z AUTO 16005KT 9999 OVC066 04/00 Q1022 TEMPO 4000 BR
Conditions at: LFBT (TARBES/OSSUN , FR) observed 0430 UTC 18 April 2021
Temperature: 4.0°C (39°F)
Dewpoint: 0.0°C (32°F) [RH = 75%]
Pressure (altimeter): 30.18 inches Hg (1022.0 mb)
Winds: from the SSE (160 degrees) at 6 MPH (5 knots; 2.6 m/s)
Visibility: 6 or more miles (10+ km)
Ceiling: 6600 feet AGL
Clouds: overcast cloud deck at 6600 feet AGL
Weather: no significant weather observed at this time

Forecast for: LFBT (TARBES/OSSUN , FR)
Text: TAF LFBT 172300Z 1800/1824 27005KT 9999 FEW030TCU BKN060
Forecast period: 0000 to 0100 UTC 18 April 2021
Forecast type: FROM: standard forecast or significant change
Winds: from the W (270 degrees) at 6 MPH (5 knots; 2.6 m/s)
Visibility: 6 or more miles (10+ km)
Ceiling: 6000 feet AGL
Clouds: few clouds at 3000 feet AGL
broken clouds at 6000 feet AGL
Weather: no significant weather forecast for this period
Text: BECMG 1801/1803 SCT050
Forecast period: 0100 UTC 18 April 2021 to 0000 UTC 19 April 2021
Forecast type: BECOMING: Conditions expected to become as follows by 0300 UTC 18 April 2021
Winds: from the W (270 degrees) at 6 MPH (5 knots; 2.6 m/s)
Visibility: 6 or more miles (10+ km)
Ceiling: at least 12,000 feet AGL
Clouds: scattered clouds at 5000 feet AGL
Weather: no significant weather forecast for this period
Text: PROB30 1805/1806 4000 BR
Forecast period: 0500 to 0600 UTC 18 April 2021
Forecast type: PROBABLE: 30 percent likelihood of the following during this time
Visibility: 2.49 miles (4.01 km)
Ceiling: unknown
Clouds: missing
Weather: BR  (mist)

 AIRPORT MAP

 RUNWAY INFORMATION
Runway 02 Runway length 9843 ft Runway width 148 ft
Runway elevation 1238 ft Runway displaced threshold 2199 ft Runway heading 20
Runway 20 Runway length 9843 ft Runway width 148 ft
Runway elevation 1170 ft Runway displaced threshold 0 ft Runway heading 200

 AIRPORT FREQUENCIES
Type APP Name APP Frequency 120.3 MHZ
Type APP Name PYRENEES A Frequency 121.175 MHZ
Type ATIS Name ATIS Frequency 125.95 MHZ
Type GND Name GND Frequency 121.8 MHZ
Type TWR Name TWR Frequency 119.05 MHZ

 AIRPORT NEAR NAVIGATION AIDS
Type VOR Name Lahitte Frequency 111800 KHZ
Type VOR Name Tarbes Frequency 113900 KHZ
Type NDB Name Tarbes Frequency 321 KHZ